Time;durP1;ratioP1;P1;durP2;ratioP2;P2;SDS_P1;SDS_P2;PMS_P1;PMS_P2;Temp;Humidity;BMP_temperature;BMP_pressure;BME280_temperature;BME280_humidity;BME280_pressure;Samples;Min_cycle;Max_cycle;Signal;HPM_P1;HPM_P2
2023/05/14 00:00:47;;;;;;;7.57;5.30;;;20.10;70.40;;;;;;3972247;29;20106;-52
2023/05/14 00:03:28;;;;;;;6.72;4.80;;;20.20;70.60;;;;;;3972371;29;20126;-50
2023/05/14 00:06:09;;;;;;;9.90;5.53;;;20.10;70.30;;;;;;3969118;29;20062;-51
2023/05/14 00:08:50;;;;;;;7.05;4.88;;;20.20;70.00;;;;;;3972564;29;20065;-52
2023/05/14 00:11:32;;;;;;;8.75;5.10;;;20.10;70.00;;;;;;3972491;29;20151;-48
2023/05/14 00:14:13;;;;;;;7.28;4.60;;;20.10;70.00;;;;;;3972208;29;20156;-51
2023/05/14 00:16:54;;;;;;;7.32;5.40;;;20.10;70.10;;;;;;3972228;29;20054;-49
2023/05/14 00:19:35;;;;;;;7.95;5.47;;;20.10;70.30;;;;;;3971902;29;20054;-49
2023/05/14 00:22:16;;;;;;;8.23;5.20;;;20.10;70.30;;;;;;3972022;29;20062;-49
2023/05/14 00:24:57;;;;;;;6.18;5.70;;;20.10;70.00;;;;;;3960723;29;20051;-48
2023/05/14 00:27:39;;;;;;;11.60;5.53;;;20.10;69.90;;;;;;3971562;29;20069;-47
2023/05/14 00:30:20;;;;;;;8.90;5.18;;;20.10;69.60;;;;;;3961112;29;20049;-51
2023/05/14 00:33:01;;;;;;;8.02;4.88;;;20.10;69.70;;;;;;3972036;29;20062;-50
2023/05/14 00:35:42;;;;;;;9.02;5.80;;;20.00;70.50;;;;;;3971958;29;20070;-50
2023/05/14 00:38:26;;;;;;;7.50;5.50;;;20.10;69.90;;;;;;3972029;29;20061;-48
2023/05/14 00:41:07;;;;;;;12.07;5.45;;;20.00;70.00;;;;;;3972048;29;20107;-47
2023/05/14 00:43:49;;;;;;;9.65;5.43;;;20.00;70.80;;;;;;3971663;29;20057;-51
2023/05/14 00:46:30;;;;;;;6.20;5.20;;;20.00;70.20;;;;;;3960590;29;20054;-49
2023/05/14 00:49:11;;;;;;;8.18;5.50;;;20.00;70.30;;;;;;3971729;29;20058;-53
2023/05/14 00:51:53;;;;;;;10.65;5.05;;;20.00;70.90;;;;;;3960482;29;20088;-52
2023/05/14 00:54:34;;;;;;;7.30;4.65;;;20.00;71.10;;;;;;3971792;29;20062;-51
2023/05/14 00:57:14;;;;;;;8.40;4.95;;;20.00;71.30;;;;;;3960452;29;20066;-53
2023/05/14 00:59:57;;;;;;;7.22;4.45;;;20.00;72.50;;;;;;3971895;29;20083;-52
2023/05/14 01:02:38;;;;;;;10.80;4.35;;;19.90;71.60;;;;;;3945439;29;20062;-52
2023/05/14 01:05:19;;;;;;;10.00;4.45;;;19.90;71.60;;;;;;3956819;29;20058;-53
2023/05/14 01:08:09;;;;;;;7.43;4.28;;;19.90;71.30;;;;;;3960746;29;20066;-50
2023/05/14 01:10:52;;;;;;;7.03;4.07;;;19.90;71.20;;;;;;3971856;29;20172;-52
2023/05/14 01:13:40;;;;;;;5.80;3.83;;;19.90;72.10;;;;;;3971608;29;20062;-51
2023/05/14 01:16:26;;;;;;;5.03;4.30;;;19.90;71.30;;;;;;3971557;29;20617;-51
2023/05/14 01:19:21;;;;;;;6.88;4.25;;;19.90;71.40;;;;;;3971630;29;20521;-52
2023/05/14 01:22:03;;;;;;;7.40;4.57;;;19.90;71.60;;;;;;3945127;29;20058;-51
2023/05/14 01:24:44;;;;;;;8.75;4.60;;;19.90;71.90;;;;;;3969380;29;20057;-51
2023/05/14 01:27:35;;;;;;;7.85;4.47;;;19.90;72.00;;;;;;3960358;29;20057;-46
2023/05/14 01:30:23;;;;;;;7.93;4.33;;;19.90;71.80;;;;;;3960146;29;20069;-50
2023/05/14 01:33:09;;;;;;;9.82;4.43;;;19.90;71.70;;;;;;3959709;29;20319;-48
2023/05/14 01:35:52;;;;;;;8.23;4.10;;;19.90;71.70;;;;;;3956131;29;20062;-51
2023/05/14 01:38:36;;;;;;;9.13;4.72;;;19.90;71.90;;;;;;3945541;30;20054;-49
2023/05/14 01:41:20;;;;;;;8.30;4.55;;;19.90;71.80;;;;;;3969633;29;20070;-52
2023/05/14 01:44:00;;;;;;;7.82;4.10;;;19.80;71.80;;;;;;3971094;29;20591;-52
2023/05/14 01:46:41;;;;;;;6.18;3.95;;;19.80;72.10;;;;;;3960098;29;20200;-48
2023/05/14 01:49:22;;;;;;;7.10;4.35;;;19.80;72.20;;;;;;3959725;29;20269;-50
2023/05/14 01:52:03;;;;;;;9.07;4.10;;;19.80;72.30;;;;;;3971258;29;20075;-48
2023/05/14 01:54:45;;;;;;;7.07;4.43;;;19.80;72.40;;;;;;3960144;29;20391;-54
2023/05/14 01:57:26;;;;;;;6.90;4.03;;;19.80;72.50;;;;;;3959898;29;20291;-49
2023/05/14 02:00:08;;;;;;;7.53;4.15;;;19.80;72.50;;;;;;3971419;29;20057;-47
2023/05/14 02:02:54;;;;;;;4.78;3.95;;;19.80;72.30;;;;;;3972170;29;20167;-54
2023/05/14 02:05:36;;;;;;;10.98;4.38;;;19.80;72.50;;;;;;3973957;29;20069;-53
2023/05/14 02:08:17;;;;;;;6.93;5.70;;;19.80;72.50;;;;;;3973543;29;20139;-53
2023/05/14 02:10:59;;;;;;;8.02;4.57;;;19.80;72.70;;;;;;3973040;29;20829;-51
2023/05/14 02:13:41;;;;;;;8.05;5.00;;;19.80;73.60;;;;;;3973877;29;20575;-52
2023/05/14 02:16:22;;;;;;;8.63;4.32;;;19.80;72.60;;;;;;3959057;29;20071;-52
2023/05/14 02:19:05;;;;;;;8.15;5.00;;;19.80;73.30;;;;;;3958576;29;20066;-53
2023/05/14 02:21:45;;;;;;;5.85;4.43;;;19.80;72.40;;;;;;3958517;29;20192;-49
2023/05/14 02:24:26;;;;;;;7.25;4.80;;;19.80;72.20;;;;;;3971626;29;20088;-49
2023/05/14 02:27:11;;;;;;;6.93;5.28;;;19.80;71.70;;;;;;3972910;29;20134;-46
2023/05/14 02:29:52;;;;;;;6.30;4.60;;;19.80;71.60;;;;;;3958646;30;20066;-49
2023/05/14 02:32:32;;;;;;;7.53;4.70;;;19.70;71.60;;;;;;3959794;29;20416;-49
2023/05/14 02:35:14;;;;;;;6.53;5.07;;;19.70;72.00;;;;;;3973256;29;20095;-51
2023/05/14 02:37:55;;;;;;;5.82;5.00;;;19.80;72.10;;;;;;3958712;29;20502;-48
2023/05/14 02:40:37;;;;;;;7.93;5.70;;;19.70;71.50;;;;;;3958373;29;20070;-49
2023/05/14 02:43:19;;;;;;;8.95;5.40;;;19.70;71.20;;;;;;3965144;29;20062;-50
2023/05/14 02:46:00;;;;;;;6.20;4.53;;;19.70;70.90;;;;;;3962123;29;20169;-49
2023/05/14 02:48:40;;;;;;;9.70;5.03;;;19.70;70.90;;;;;;3973847;29;20415;-48
2023/05/14 02:51:21;;;;;;;7.93;4.97;;;19.70;71.30;;;;;;3973158;29;20057;-49
2023/05/14 02:54:02;;;;;;;9.30;5.63;;;19.70;71.10;;;;;;3973445;29;20502;-48
2023/05/14 02:56:43;;;;;;;9.93;5.18;;;19.60;71.30;;;;;;3962153;29;20061;-49
2023/05/14 02:59:27;;;;;;;10.05;5.72;;;19.60;71.30;;;;;;3973572;29;20522;-51
2023/05/14 03:02:08;;;;;;;8.63;5.03;;;19.60;71.30;;;;;;3962067;29;20114;-47
2023/05/14 03:04:49;;;;;;;7.13;4.90;;;19.60;71.70;;;;;;3972214;29;20057;-48
2023/05/14 03:07:30;;;;;;;5.70;5.03;;;19.60;72.90;;;;;;3973025;29;20058;-49
2023/05/14 03:10:11;;;;;;;6.10;5.50;;;19.60;72.70;;;;;;3961986;29;20062;-52
2023/05/14 03:12:52;;;;;;;7.85;5.80;;;19.60;73.10;;;;;;3972559;29;20420;-50
2023/05/14 03:15:34;;;;;;;9.25;5.20;;;19.60;73.30;;;;;;3973090;29;20187;-48
2023/05/14 03:18:15;;;;;;;7.55;5.60;;;19.60;73.30;;;;;;3961013;29;20202;-50
2023/05/14 03:20:56;;;;;;;7.63;5.55;;;19.60;73.10;;;;;;3972877;29;20235;-52
2023/05/14 03:23:37;;;;;;;7.55;5.40;;;19.60;73.00;;;;;;3973217;29;20184;-51
2023/05/14 03:26:18;;;;;;;10.10;5.75;;;19.50;73.10;;;;;;3961962;29;20058;-50
2023/05/14 03:28:59;;;;;;;9.68;5.72;;;19.50;73.10;;;;;;3972940;29;20057;-50
2023/05/14 03:31:42;;;;;;;10.05;5.70;;;19.50;73.20;;;;;;3973023;29;20065;-53
2023/05/14 03:34:23;;;;;;;9.73;5.50;;;19.50;73.00;;;;;;3957155;29;20510;-50
2023/05/14 03:37:04;;;;;;;12.02;5.88;;;19.50;73.00;;;;;;3957115;29;20054;-52
2023/05/14 03:39:44;;;;;;;14.32;5.60;;;19.50;73.30;;;;;;3969487;29;20057;-49
2023/05/14 03:42:25;;;;;;;10.68;5.97;;;19.50;73.30;;;;;;3972912;29;20058;-50
2023/05/14 03:45:07;;;;;;;;;;;19.50;73.30;;;;;;3973258;29;20057;-52
2023/05/14 03:47:50;;;;;;;11.70;6.05;;;19.50;73.30;;;;;;3961105;29;19945;-50
2023/05/14 03:50:31;;;;;;;9.57;5.88;;;19.50;73.70;;;;;;3961288;29;20110;-48
2023/05/14 03:53:12;;;;;;;9.57;5.35;;;19.50;73.20;;;;;;3972722;29;20053;-50
2023/05/14 03:55:53;;;;;;;7.95;6.00;;;19.50;73.20;;;;;;3972689;29;20134;-47
2023/05/14 03:58:34;;;;;;;7.32;5.47;;;19.50;73.40;;;;;;3961085;29;20126;-49
2023/05/14 04:01:15;;;;;;;10.23;5.78;;;19.50;74.30;;;;;;3961393;29;20062;-47
2023/05/14 04:03:57;;;;;;;6.65;5.57;;;19.50;73.20;;;;;;3971811;29;20111;-51
2023/05/14 04:06:38;;;;;;;9.18;5.15;;;19.50;73.20;;;;;;3972324;29;20054;-52
2023/05/14 04:09:20;;;;;;;13.00;5.18;;;19.50;73.20;;;;;;3971170;29;20066;-53
2023/05/14 04:12:00;;;;;;;9.50;4.90;;;19.50;73.40;;;;;;3972148;29;20188;-48
2023/05/14 04:14:41;;;;;;;6.82;5.00;;;19.50;73.30;;;;;;3972544;29;20116;-49
2023/05/14 04:17:22;;;;;;;11.02;5.47;;;19.50;73.20;;;;;;3960802;29;20102;-52
2023/05/14 04:20:06;;;;;;;8.60;5.70;;;19.50;72.80;;;;;;3972043;29;20426;-49
2023/05/14 04:22:47;;;;;;;9.48;5.78;;;19.50;72.50;;;;;;3972345;29;20431;-49
2023/05/14 04:25:29;;;;;;;7.80;5.63;;;19.40;72.70;;;;;;3971376;29;20054;-48
2023/05/14 04:28:10;;;;;;;;;;;19.40;73.00;;;;;;3961376;29;20053;-54
2023/05/14 04:30:51;;;;;;;9.25;5.70;;;19.40;73.20;;;;;;3972001;29;20408;-46
2023/05/14 04:33:32;;;;;;;8.07;5.15;;;19.40;73.40;;;;;;3972031;29;20063;-50
2023/05/14 04:36:14;;;;;;;8.90;5.13;;;19.40;73.10;;;;;;3971725;29;20070;-51
2023/05/14 04:38:55;;;;;;;11.50;5.40;;;19.40;73.10;;;;;;3942376;30;20121;-50
2023/05/14 04:41:36;;;;;;;8.88;5.40;;;19.40;73.00;;;;;;3953359;29;20143;-46
2023/05/14 04:44:17;;;;;;;12.40;5.53;;;19.40;73.20;;;;;;3957128;29;20066;-48
2023/05/14 04:46:58;;;;;;;14.00;5.80;;;19.40;73.40;;;;;;3956684;29;20054;-52
2023/05/14 04:49:39;;;;;;;8.65;5.82;;;19.40;73.70;;;;;;3957096;29;20065;-52
2023/05/14 04:52:21;;;;;;;12.88;5.70;;;19.40;74.00;;;;;;3945494;29;20614;-52
2023/05/14 04:55:02;;;;;;;10.88;6.05;;;19.40;74.10;;;;;;3956491;29;20058;-49
2023/05/14 04:57:43;;;;;;;9.48;6.00;;;19.30;73.90;;;;;;3956758;29;20050;-52
2023/05/14 05:00:24;;;;;;;11.48;6.00;;;19.40;73.90;;;;;;3956175;29;20063;-50
2023/05/14 05:03:06;;;;;;;9.80;5.95;;;19.40;73.80;;;;;;3956696;29;20464;-51
2023/05/14 05:05:48;;;;;;;12.27;5.97;;;19.40;74.40;;;;;;3956951;29;20066;-53
2023/05/14 05:08:30;;;;;;;10.80;6.05;;;19.40;73.40;;;;;;3945890;30;20216;-54
2023/05/14 05:11:11;;;;;;;12.85;6.25;;;19.40;73.60;;;;;;3956798;29;20062;-51
2023/05/14 05:13:52;;;;;;;13.45;6.20;;;19.40;74.70;;;;;;3956827;29;20085;-51
2023/05/14 05:16:33;;;;;;;16.88;6.55;;;19.40;74.00;;;;;;3945531;30;20830;-51
2023/05/14 05:19:14;;;;;;;14.55;6.25;;;19.30;74.00;;;;;;3956476;29;20062;-50
2023/05/14 05:21:56;;;;;;;11.07;5.55;;;19.30;74.10;;;;;;3945546;29;20058;-48
2023/05/14 05:24:38;;;;;;;11.95;5.53;;;19.30;74.10;;;;;;3956080;29;20070;-49
2023/05/14 05:27:19;;;;;;;19.73;6.45;;;19.40;74.20;;;;;;3956432;29;20062;-51
2023/05/14 05:30:02;;;;;;;12.68;5.07;;;19.30;74.00;;;;;;3956744;29;20074;-52
2023/05/14 05:32:44;;;;;;;14.30;5.57;;;19.30;74.30;;;;;;3956483;29;20536;-48
2023/05/14 05:35:25;;;;;;;15.85;5.72;;;19.30;74.70;;;;;;3956325;29;20193;-54
2023/05/14 05:38:06;;;;;;;7.05;5.32;;;19.30;75.00;;;;;;3969108;29;20192;-52
2023/05/14 05:40:48;;;;;;;12.70;5.45;;;19.40;75.30;;;;;;3970880;29;20410;-54
2023/05/14 05:43:29;;;;;;;9.20;5.55;;;19.40;75.40;;;;;;3964590;29;20069;-53
2023/05/14 05:46:10;;;;;;;9.32;4.88;;;19.40;75.90;;;;;;3970711;29;20165;-52
2023/05/14 05:48:52;;;;;;;11.43;5.45;;;19.40;76.00;;;;;;3972963;29;20058;-51
2023/05/14 05:51:33;;;;;;;11.40;5.93;;;19.40;76.00;;;;;;3956466;29;20112;-53
2023/05/14 05:54:14;;;;;;;12.10;5.35;;;19.40;76.50;;;;;;3955284;29;20059;-51
2023/05/14 05:56:56;;;;;;;12.98;5.57;;;19.40;76.00;;;;;;3956362;29;20055;-50
2023/05/14 05:59:37;;;;;;;13.63;5.88;;;19.40;75.50;;;;;;3956181;29;20523;-50
2023/05/14 06:02:18;;;;;;;12.73;5.30;;;19.40;76.00;;;;;;3969526;29;20069;-50
2023/05/14 06:04:59;;;;;;;14.25;5.13;;;19.40;76.30;;;;;;3970422;29;20054;-52
2023/05/14 06:07:40;;;;;;;12.55;5.40;;;19.40;76.40;;;;;;3961963;29;20089;-53
2023/05/14 06:10:21;;;;;;;10.73;5.95;;;19.40;76.60;;;;;;3969773;29;20178;-53
2023/05/14 06:13:04;;;;;;;12.35;5.85;;;19.40;76.90;;;;;;3975995;29;20062;-52
2023/05/14 06:15:45;;;;;;;14.23;6.22;;;19.40;76.70;;;;;;3955363;29;20073;-52
2023/05/14 06:18:25;;;;;;;13.75;5.60;;;19.40;76.80;;;;;;3956172;29;20058;-52
2023/05/14 06:21:06;;;;;;;12.27;5.75;;;19.40;76.90;;;;;;3944983;29;20054;-54
2023/05/14 06:23:47;;;;;;;9.10;5.30;;;19.50;77.90;;;;;;3956203;29;20136;-51
2023/05/14 06:26:28;;;;;;;10.10;5.25;;;19.50;77.10;;;;;;3955797;29;20082;-50
2023/05/14 06:29:11;;;;;;;14.00;5.82;;;19.50;77.20;;;;;;3956313;29;20062;-53
2023/05/14 06:31:52;;;;;;;14.65;6.20;;;19.50;76.90;;;;;;3970294;29;20062;-54
2023/05/14 06:34:33;;;;;;;13.18;5.10;;;19.50;76.70;;;;;;3970867;29;20074;-51
2023/05/14 06:37:14;;;;;;;8.95;5.40;;;19.50;76.80;;;;;;3970798;29;20415;-52
2023/05/14 06:39:55;;;;;;;9.68;4.93;;;19.50;76.80;;;;;;3968381;29;20058;-54
2023/05/14 06:42:37;;;;;;;11.82;5.88;;;19.50;76.70;;;;;;3970477;29;20736;-52
2023/05/14 06:45:20;;;;;;;12.35;6.10;;;19.50;77.00;;;;;;3970643;29;20071;-51
2023/05/14 06:48:00;;;;;;;16.25;5.72;;;19.50;77.00;;;;;;3970789;29;20164;-52
2023/05/14 06:50:41;;;;;;;9.63;6.20;;;19.50;76.90;;;;;;3973204;29;20510;-51
2023/05/14 06:53:22;;;;;;;10.65;5.47;;;19.50;76.80;;;;;;3973359;29;20070;-55
2023/05/14 06:56:04;;;;;;;18.58;6.25;;;19.50;76.90;;;;;;3973009;29;20050;-53
2023/05/14 06:58:45;;;;;;;9.90;5.40;;;19.50;77.00;;;;;;3972667;29;20057;-54
2023/05/14 07:01:27;;;;;;;15.15;5.50;;;19.50;77.30;;;;;;3958466;29;20123;-47
2023/05/14 07:04:08;;;;;;;10.45;5.53;;;19.50;77.40;;;;;;3964673;29;20071;-50
2023/05/14 07:06:49;;;;;;;15.50;6.13;;;19.50;77.50;;;;;;3971470;29;20071;-52
2023/05/14 07:09:30;;;;;;;10.00;6.32;;;19.50;77.50;;;;;;3973194;29;20498;-50
2023/05/14 07:12:11;;;;;;;8.82;5.38;;;19.50;77.50;;;;;;3972994;29;20061;-51
2023/05/14 07:14:52;;;;;;;9.65;5.82;;;19.50;77.30;;;;;;3958370;29;20062;-53
2023/05/14 07:17:34;;;;;;;12.57;5.70;;;19.50;77.20;;;;;;3957900;29;20107;-49
2023/05/14 07:20:15;;;;;;;13.45;5.13;;;19.50;77.30;;;;;;3953977;29;20192;-50
2023/05/14 07:22:57;;;;;;;11.13;4.97;;;19.60;77.40;;;;;;3973352;29;20526;-52
2023/05/14 07:25:38;;;;;;;13.55;5.40;;;19.60;76.90;;;;;;3973682;29;20078;-51
2023/05/14 07:28:19;;;;;;;10.48;5.63;;;19.60;77.00;;;;;;3973425;29;20144;-50
2023/05/14 07:31:00;;;;;;;8.85;5.47;;;19.60;77.20;;;;;;3967607;29;20057;-50
2023/05/14 07:33:42;;;;;;;8.10;4.93;;;19.60;78.10;;;;;;3972545;29;20112;-51
2023/05/14 07:36:23;;;;;;;8.27;5.25;;;19.60;76.90;;;;;;3972674;29;20062;-54
2023/05/14 07:39:04;;;;;;;11.63;5.43;;;19.60;77.90;;;;;;3972593;29;20061;-52
2023/05/14 07:41:45;;;;;;;9.95;5.50;;;19.60;77.20;;;;;;3973043;29;20654;-52
2023/05/14 07:44:25;;;;;;;13.85;5.05;;;19.60;77.30;;;;;;3972883;29;20049;-53
2023/05/14 07:47:07;;;;;;;10.02;5.80;;;19.70;77.30;;;;;;3960498;29;20061;-52
2023/05/14 07:49:53;;;;;;;6.78;4.50;;;19.70;77.20;;;;;;3957909;29;20529;-52
2023/05/14 07:52:34;;;;;;;10.07;5.25;;;19.70;76.80;;;;;;3963272;29;20519;-49
2023/05/14 07:55:15;;;;;;;6.28;5.00;;;19.70;76.70;;;;;;3972217;29;20518;-54
2023/05/14 07:57:56;;;;;;;6.68;4.95;;;19.70;76.70;;;;;;3972781;29;20057;-52
2023/05/14 08:00:37;;;;;;;10.00;5.70;;;19.70;76.80;;;;;;3967771;29;20111;-51
2023/05/14 08:03:18;;;;;;;8.63;4.90;;;19.70;76.60;;;;;;3957048;29;20527;-47
2023/05/14 08:06:00;;;;;;;8.90;5.45;;;19.70;75.90;;;;;;3967763;29;20530;-52
2023/05/14 08:08:41;;;;;;;8.98;5.82;;;19.80;76.00;;;;;;3957446;29;20131;-54
2023/05/14 08:11:22;;;;;;;11.20;6.05;;;19.80;75.70;;;;;;3951624;29;20119;-53
2023/05/14 08:14:03;;;;;;;9.02;5.40;;;19.80;75.70;;;;;;3971932;29;20203;-52
2023/05/14 08:16:44;;;;;;;9.52;5.30;;;19.80;75.70;;;;;;3972374;29;20053;-51
2023/05/14 08:19:26;;;;;;;8.90;5.65;;;19.90;75.70;;;;;;3971729;29;20053;-50
2023/05/14 08:22:08;;;;;;;11.77;6.60;;;19.90;75.40;;;;;;3970818;29;20114;-53
2023/05/14 08:24:49;;;;;;;6.10;5.53;;;19.90;74.60;;;;;;3957495;29;20062;-50
2023/05/14 08:27:30;;;;;;;8.27;5.80;;;20.00;74.30;;;;;;3970589;29;20434;-53
2023/05/14 08:30:11;;;;;;;10.32;6.35;;;20.00;73.90;;;;;;3957352;29;20518;-49
2023/05/14 08:32:52;;;;;;;10.10;6.43;;;20.10;74.10;;;;;;3970078;29;20411;-49
2023/05/14 08:35:33;;;;;;;11.00;6.55;;;20.10;74.00;;;;;;3972144;29;20054;-53
2023/05/14 08:38:15;;;;;;;10.20;6.57;;;20.10;74.00;;;;;;3975622;29;20073;-55
2023/05/14 08:40:57;;;;;;;9.52;6.97;;;20.10;74.00;;;;;;3976067;29;20139;-58
2023/05/14 08:43:44;;;;;;;14.00;7.30;;;20.20;73.60;;;;;;3972277;29;20053;-59
2023/05/14 08:46:29;;;;;;;12.18;7.50;;;20.20;73.00;;;;;;3971728;29;20057;-57
2023/05/14 08:49:32;;;;;;;13.27;7.75;;;20.20;73.50;;;;;;3972175;29;20415;-56
2023/05/14 08:52:13;;;;;;;12.02;7.25;;;20.20;74.90;;;;;;3971847;29;20138;-56
2023/05/14 08:54:57;;;;;;;12.88;7.85;;;20.30;75.30;;;;;;3971772;29;20419;-57
2023/05/14 08:57:38;;;;;;;11.40;7.63;;;20.30;74.40;;;;;;3971930;29;20050;-56
2023/05/14 09:00:19;;;;;;;8.35;7.47;;;20.30;73.60;;;;;;3971972;29;20530;-57
2023/05/14 09:03:01;;;;;;;13.15;8.43;;;20.30;73.80;;;;;;3971740;29;20623;-57
2023/05/14 09:05:42;;;;;;;11.52;7.38;;;20.40;74.50;;;;;;3972047;29;20107;-59
2023/05/14 09:08:23;;;;;;;9.98;7.95;;;20.40;73.20;;;;;;3959985;29;20126;-56
2023/05/14 09:11:05;;;;;;;11.10;8.10;;;20.40;74.50;;;;;;3969554;29;20139;-58
2023/05/14 09:13:46;;;;;;;13.98;8.35;;;20.50;72.20;;;;;;3971846;29;20058;-56
2023/05/14 09:16:28;;;;;;;10.40;8.10;;;20.60;72.80;;;;;;3969519;29;20065;-57
2023/05/14 09:19:08;;;;;;;;;;;20.60;72.30;;;;;;3971722;29;20192;-58
2023/05/14 09:21:50;;;;;;;10.82;7.57;;;20.60;72.30;;;;;;3960381;29;19936;-58
2023/05/14 09:24:31;;;;;;;9.77;7.80;;;20.70;71.50;;;;;;3960578;29;20083;-59
2023/05/14 09:27:20;;;;;;;10.63;7.15;;;20.70;71.80;;;;;;3969648;29;20062;-57
2023/05/14 09:30:09;;;;;;;8.20;7.38;;;20.70;70.70;;;;;;3970823;29;20062;-58
2023/05/14 09:32:52;;;;;;;8.27;7.47;;;20.80;69.80;;;;;;3971438;29;20606;-55
2023/05/14 09:35:33;;;;;;;11.25;7.10;;;20.80;69.90;;;;;;3960231;29;20054;-57
2023/05/14 09:38:15;;;;;;;28.38;8.60;;;20.90;68.70;;;;;;3960020;29;20114;-54
2023/05/14 09:40:56;;;;;;;9.35;8.45;;;20.90;69.00;;;;;;3960090;29;20066;-58
2023/05/14 09:43:38;;;;;;;;;;;20.90;69.80;;;;;;3971877;29;20150;-57
2023/05/14 09:46:19;;;;;;;7.88;7.05;;;20.90;70.50;;;;;;3971464;29;20027;-56
2023/05/14 09:48:59;;;;;;;14.50;7.33;;;21.00;70.30;;;;;;3961137;29;20194;-55
2023/05/14 09:51:40;;;;;;;6.93;6.22;;;21.00;69.80;;;;;;3971288;29;20320;-56
2023/05/14 09:54:21;;;;;;;11.65;7.10;;;21.00;69.80;;;;;;3970634;29;20719;-55
2023/05/14 09:57:02;;;;;;;8.07;5.65;;;21.00;69.80;;;;;;3970441;29;20054;-57
2023/05/14 09:59:44;;;;;;;8.13;6.78;;;21.00;69.30;;;;;;3971333;29;20061;-56
2023/05/14 10:02:35;;;;;;;6.57;5.95;;;21.10;66.20;;;;;;3967318;29;20054;-57
2023/05/14 10:05:16;;;;;;;7.22;5.85;;;21.10;66.10;;;;;;3982116;29;20138;-56
2023/05/14 10:07:59;;;;;;;6.25;5.13;;;21.20;67.60;;;;;;3982027;29;20054;-57
2023/05/14 10:10:40;;;;;;;7.47;5.10;;;21.20;67.10;;;;;;3970264;29;20253;-56
2023/05/14 10:13:24;;;;;;;6.38;4.45;;;21.20;66.40;;;;;;3970493;29;20065;-56
2023/05/14 10:16:11;;;;;;;5.97;4.53;;;21.20;66.70;;;;;;3970598;29;20545;-57
2023/05/14 10:18:56;;;;;;;4.30;3.95;;;21.30;65.90;;;;;;3967212;29;20066;-59
2023/05/14 10:21:39;;;;;;;4.78;4.10;;;21.30;65.50;;;;;;3956130;29;20063;-57
2023/05/14 10:24:20;;;;;;;7.07;4.55;;;21.40;65.90;;;;;;3974434;29;20629;-57
2023/05/14 10:27:02;;;;;;;5.25;4.75;;;21.40;66.40;;;;;;3972240;29;20065;-57
2023/05/14 10:29:52;;;;;;;7.95;5.03;;;21.40;66.00;;;;;;3974090;29;20061;-55
2023/05/14 10:32:36;;;;;;;10.00;5.22;;;21.50;65.30;;;;;;3973331;29;20422;-57
2023/05/14 10:35:19;;;;;;;5.47;4.97;;;21.50;63.90;;;;;;3972475;29;20522;-57
2023/05/14 10:38:00;;;;;;;8.18;5.13;;;21.50;64.50;;;;;;3965453;29;20107;-57
2023/05/14 10:40:41;;;;;;;8.00;5.63;;;21.60;65.40;;;;;;3962493;29;20053;-56
2023/05/14 10:43:26;;;;;;;12.70;5.45;;;21.60;66.30;;;;;;3973328;29;20522;-56
2023/05/14 10:46:08;;;;;;;6.82;4.70;;;21.60;65.10;;;;;;3973745;29;20062;-56
2023/05/14 10:48:51;;;;;;;7.10;4.53;;;21.60;65.30;;;;;;3962887;29;20066;-60
2023/05/14 10:51:32;;;;;;;4.28;3.97;;;21.60;65.00;;;;;;3962540;29;20134;-60
2023/05/14 10:54:13;;;;;;;5.50;5.10;;;21.70;65.10;;;;;;3958945;29;20096;-59
2023/05/14 10:56:54;;;;;;;6.47;4.63;;;21.70;63.20;;;;;;3958967;29;20549;-57
2023/05/14 10:59:35;;;;;;;10.43;4.93;;;21.70;63.70;;;;;;3958651;29;20116;-56
2023/05/14 11:02:21;;;;;;;4.35;3.97;;;21.70;64.60;;;;;;3958740;29;20055;-58
2023/05/14 11:05:05;;;;;;;8.57;3.92;;;21.70;63.20;;;;;;3958881;29;20057;-56
2023/05/14 11:07:47;;;;;;;5.88;4.57;;;21.70;62.50;;;;;;3958471;29;20606;-57
2023/05/14 11:10:29;;;;;;;6.22;3.42;;;21.70;61.90;;;;;;3958734;29;20081;-55
2023/05/14 11:13:11;;;;;;;3.97;3.67;;;21.70;62.40;;;;;;3958403;29;20511;-58
2023/05/14 11:15:53;;;;;;;7.75;3.83;;;21.80;63.10;;;;;;3958379;29;20059;-58
2023/05/14 11:18:37;;;;;;;5.38;3.22;;;21.80;61.90;;;;;;3962475;29;20065;-51
2023/05/14 11:21:19;;;;;;;4.40;3.20;;;21.80;62.80;;;;;;3973018;29;20473;-47
2023/05/14 11:24:00;;;;;;;4.30;2.90;;;21.80;63.50;;;;;;3972956;29;20064;-50
2023/05/14 11:26:41;;;;;;;3.80;3.42;;;21.80;62.70;;;;;;3973145;29;20053;-48
2023/05/14 11:29:22;;;;;;;6.07;3.50;;;21.90;62.20;;;;;;3972059;29;20502;-50
2023/05/14 11:32:05;;;;;;;4.13;3.00;;;21.90;62.50;;;;;;3972618;29;20065;-49
2023/05/14 11:34:47;;;;;;;2.85;2.53;;;21.90;62.40;;;;;;3971831;29;20062;-49
2023/05/14 11:37:29;;;;;;;2.92;2.53;;;22.00;62.20;;;;;;3972930;29;20065;-52
2023/05/14 11:40:16;;;;;;;3.08;2.72;;;22.00;62.10;;;;;;3972974;29;20072;-49
2023/05/14 11:42:57;;;;;;;5.10;2.83;;;22.00;59.80;;;;;;3972390;29;20556;-51
2023/05/14 11:45:38;;;;;;;3.95;3.05;;;22.00;59.80;;;;;;3972760;29;20062;-53
2023/05/14 11:48:19;;;;;;;3.42;2.80;;;22.00;58.20;;;;;;3961579;29;20150;-47
2023/05/14 11:51:00;;;;;;;;;;;22.10;61.00;;;;;;3973381;29;20415;-50
2023/05/14 11:53:45;;;;;;;4.05;3.10;;;22.10;60.00;;;;;;3972715;29;20035;-53
2023/05/14 11:56:30;;;;;;;4.85;3.22;;;22.10;58.20;;;;;;3972718;29;20518;-50
2023/05/14 11:59:11;;;;;;;3.88;2.67;;;22.10;59.60;;;;;;3957865;29;20066;-49
2023/05/14 12:01:52;;;;;;;2.70;2.50;;;22.10;59.70;;;;;;3957709;29;20115;-48
2023/05/14 12:04:33;;;;;;;2.53;2.33;;;22.10;58.10;;;;;;3957677;29;20811;-49
2023/05/14 12:07:15;;;;;;;5.28;2.97;;;22.20;56.80;;;;;;3957514;29;20188;-47
2023/05/14 12:10:02;;;;;;;5.60;2.92;;;22.20;57.30;;;;;;3957477;29;20127;-51
2023/05/14 12:12:46;;;;;;;4.43;2.75;;;22.20;56.50;;;;;;3957171;29;20468;-53
2023/05/14 12:15:28;;;;;;;3.42;3.13;;;22.20;57.40;;;;;;3961016;29;20146;-53
2023/05/14 12:18:09;;;;;;;4.47;2.65;;;22.20;58.30;;;;;;3957430;29;20604;-55
2023/05/14 12:21:03;;;;;;;5.25;2.70;;;22.30;58.70;;;;;;3945502;29;20185;-52
2023/05/14 12:23:45;;;;;;;3.03;2.83;;;22.30;59.00;;;;;;3971121;29;20488;-51
2023/05/14 12:26:27;;;;;;;3.10;2.83;;;22.30;58.70;;;;;;3971547;29;20065;-49
2023/05/14 12:29:08;;;;;;;8.40;3.10;;;22.30;59.30;;;;;;3971985;29;20061;-50
2023/05/14 12:31:50;;;;;;;3.08;2.88;;;22.30;59.10;;;;;;3957333;29;20058;-51
2023/05/14 12:34:30;;;;;;;4.07;2.72;;;22.30;57.80;;;;;;3956477;29;20143;-47
2023/05/14 12:37:11;;;;;;;3.65;3.03;;;22.30;58.40;;;;;;3956789;29;20063;-48
2023/05/14 12:39:52;;;;;;;3.58;3.22;;;22.30;58.90;;;;;;3957288;29;20070;-50
2023/05/14 12:42:34;;;;;;;3.88;2.75;;;22.30;58.70;;;;;;3964052;29;20443;-51
2023/05/14 12:45:15;;;;;;;3.75;2.90;;;22.30;57.90;;;;;;3971894;29;20062;-47
2023/05/14 12:47:56;;;;;;;4.55;3.53;;;22.40;58.30;;;;;;3971942;29;20066;-50
2023/05/14 12:50:37;;;;;;;5.15;3.25;;;22.40;58.30;;;;;;3971927;29;20066;-50
2023/05/14 12:53:18;;;;;;;4.22;3.13;;;22.40;58.80;;;;;;3961612;29;20058;-49
2023/05/14 12:55:58;;;;;;;4.97;3.92;;;22.40;58.50;;;;;;3971699;29;20526;-50
2023/05/14 12:58:41;;;;;;;4.82;4.10;;;22.40;58.10;;;;;;3971849;29;20058;-49
2023/05/14 13:01:22;;;;;;;6.28;4.35;;;22.40;58.00;;;;;;3972015;29;20061;-51
2023/05/14 13:04:03;;;;;;;5.30;4.40;;;22.40;58.10;;;;;;3971796;29;20103;-48
2023/05/14 13:06:44;;;;;;;5.07;4.00;;;22.40;58.80;;;;;;3971819;29;20053;-49
2023/05/14 13:09:26;;;;;;;4.45;4.15;;;22.40;58.10;;;;;;3971724;29;20053;-51
2023/05/14 13:12:08;;;;;;;9.10;3.83;;;22.40;58.90;;;;;;3971389;29;20135;-49
2023/05/14 13:14:50;;;;;;;5.57;3.95;;;22.50;58.60;;;;;;3968637;29;20412;-51
2023/05/14 13:17:31;;;;;;;4.57;4.18;;;22.40;58.70;;;;;;3971479;29;20065;-46
2023/05/14 13:20:12;;;;;;;;;;;22.40;58.40;;;;;;3960562;29;20061;-52
2023/05/14 13:22:53;;;;;;;4.75;4.32;;;22.50;59.00;;;;;;3971320;29;19935;-48
2023/05/14 13:25:35;;;;;;;4.60;4.20;;;22.50;59.30;;;;;;3971451;29;20068;-48
2023/05/14 13:28:15;;;;;;;5.65;5.18;;;22.50;58.30;;;;;;3971486;29;20061;-49
2023/05/14 13:31:06;;;;;;;4.50;4.00;;;22.50;59.10;;;;;;3956819;29;20082;-50
2023/05/14 13:33:47;;;;;;;4.15;3.80;;;22.50;58.20;;;;;;3956880;29;20197;-48
2023/05/14 13:36:29;;;;;;;4.13;3.75;;;22.50;58.00;;;;;;3956588;29;20072;-58
2023/05/14 13:39:10;;;;;;;8.80;5.20;;;22.50;58.00;;;;;;3970793;29;20062;-59
2023/05/14 13:41:55;;;;;;;5.35;4.80;;;22.50;58.30;;;;;;3969947;29;20066;-58
2023/05/14 13:44:36;;;;;;;6.10;5.47;;;22.50;59.00;;;;;;3977332;29;20414;-59
2023/05/14 13:47:18;;;;;;;6.03;5.60;;;22.50;58.20;;;;;;3971624;29;20268;-59
2023/05/14 13:49:59;;;;;;;6.70;5.53;;;22.50;58.50;;;;;;3974528;29;20057;-58
2023/05/14 13:52:40;;;;;;;6.68;5.50;;;22.50;58.90;;;;;;3977027;29;20053;-60
2023/05/14 13:55:21;;;;;;;7.32;4.82;;;22.60;58.30;;;;;;3970928;29;20082;-61
2023/05/14 13:58:03;;;;;;;6.68;3.97;;;22.60;58.50;;;;;;3970123;29;20106;-61
2023/05/14 14:00:44;;;;;;;3.28;3.00;;;22.60;59.20;;;;;;3959470;29;20053;-59